Burnet, TX

9:05 PM CDT on August 30, 2015 (GMT -0500)
Shale Valley Ranch | | Change Station
CLOSE
Current Station
Personal Weather Station
Location: Burnet, TX
Elevation: 1539 ft
Nearby Weather Stations

Elev 1539 ft 30.83 °N, 98.28 °W | Updated 12 minutes ago

Light Rain
Light Rain
72.4 °F
Feels Like 71 °F
N
2.0
Wind Variable Wind from SE
Gusts 6.0 mph

Today
High -- | Low -- °F
--% Chance of Precip.
Yesterday
High -- | Low -- °F
Precip. -- in
7:08 AM 7:58 PM
Full, 97% visible
Pressure 29.97 in
Visibility 10.0 miles
Clouds Clear
Heat Index 71 °F
Dew Point 68 °F
Humidity 85%
Rainfall 0.00 in
Snow Depth Not available.
UV 0 out of 12
Pollen 6.30 out of 12
Air Quality Not available.
Flu Activity Not available.
METAR KBMQ 310153Z AUTO 00000KT 10SM -RA CLR 24/21 A3002 RMK AO2 SLP149 P0002 T02390206 $
Pressure 29.97 in
Visibility 10.0 miles
Clouds Clear
Heat Index 71 °F
Dew Point 68 °F
Humidity 85%
Rainfall 0.00 in
Snow Depth Not available.
UV 0 out of 12
Pollen 6.30 out of 12
Air Quality Not available.
Flu Activity Not available.
METAR KBMQ 310153Z AUTO 00000KT 10SM -RA CLR 24/21 A3002 RMK AO2 SLP149 P0002 T02390206 $
Nowcast | as of 8:09 PM CDT on August 30, 2015

A few sprinkles or light rain will continue for the next hour across the region. All the thunderstorms have dissipated and the light rain should decrease and most likely end around 9 PM. Any additional rainfall will be light with amounts expected to be 1/10 of an inch or less.

×

10-Day Weather Forecast

×

Almanac

Astronomy

Aug. 30, 2015 Rise Set
Actual Time
Civil Twilight
Nautical Twilight
Astronomical Twilight
Moon
Length of Visible Light
Length of Day
Tomorrow will be .
, % of the Moon is Illuminated

Today's Extremes

State Highs State Lows

Community

WunderPhotos

Upload Photos

1,851,155 photos uploaded!

WunderBlogs® & News

Nearby

Air Quality

  Air Quality AQ Index Pollutant
Not available.

Snow Depth

Station Depth Elevation

Earthquake Activity

City Distance Mag. Time & Date
Minimum magnitude displayed is 2.5.

Coastal Water Temperatures

Place Temperature

Stations

Nearby Weather Stations

Station Location Temp. Windchill Dew Point Humidity Wind Precip. Elev Updated Type